sensor_id;sensor_type;location;lat;lon;timestamp;temperature;humidity
38325;DHT22;24126;52.672;13.622;2023-02-04T00:01:37;8.50;73.30
38325;DHT22;24126;52.672;13.622;2023-02-04T00:04:04;8.40;73.40
38325;DHT22;24126;52.672;13.622;2023-02-04T00:09:04;8.40;73.30
38325;DHT22;24126;52.672;13.622;2023-02-04T00:11:31;8.40;73.40
38325;DHT22;24126;52.672;13.622;2023-02-04T00:13:58;8.40;73.40
38325;DHT22;24126;52.672;13.622;2023-02-04T00:16:26;8.40;73.50
38325;DHT22;24126;52.672;13.622;2023-02-04T00:18:53;8.40;73.70
38325;DHT22;24126;52.672;13.622;2023-02-04T00:21:24;8.40;73.40
38325;DHT22;24126;52.672;13.622;2023-02-04T00:23:51;8.40;73.30
38325;DHT22;24126;52.672;13.622;2023-02-04T00:26:20;8.30;73.00
38325;DHT22;24126;52.672;13.622;2023-02-04T00:28:49;8.30;73.00
38325;DHT22;24126;52.672;13.622;2023-02-04T00:31:16;8.30;73.10
38325;DHT22;24126;52.672;13.622;2023-02-04T00:33:43;8.30;72.80
38325;DHT22;24126;52.672;13.622;2023-02-04T00:36:10;8.20;72.60
38325;DHT22;24126;52.672;13.622;2023-02-04T00:38:37;8.20;72.50
38325;DHT22;24126;52.672;13.622;2023-02-04T00:41:05;8.20;71.90
38325;DHT22;24126;52.672;13.622;2023-02-04T00:43:33;8.10;71.90
38325;DHT22;24126;52.672;13.622;2023-02-04T00:46:00;8.10;71.60
38325;DHT22;24126;52.672;13.622;2023-02-04T00:48:28;8.10;71.50
38325;DHT22;24126;52.672;13.622;2023-02-04T00:50:57;8.10;71.60
38325;DHT22;24126;52.672;13.622;2023-02-04T00:53:25;8.10;71.50
38325;DHT22;24126;52.672;13.622;2023-02-04T00:55:52;8.10;71.40
38325;DHT22;24126;52.672;13.622;2023-02-04T00:58:21;8.10;71.20
38325;DHT22;24126;52.672;13.622;2023-02-04T01:01:01;8.10;71.00
38325;DHT22;24126;52.672;13.622;2023-02-04T01:03:28;8.10;71.00
38325;DHT22;24126;52.672;13.622;2023-02-04T01:05:55;8.10;70.70
38325;DHT22;24126;52.672;13.622;2023-02-04T01:08:22;8.10;70.70
38325;DHT22;24126;52.672;13.622;2023-02-04T01:10:49;8.00;70.50
38325;DHT22;24126;52.672;13.622;2023-02-04T01:13:17;8.00;70.10
38325;DHT22;24126;52.672;13.622;2023-02-04T01:15:56;8.00;69.90
38325;DHT22;24126;52.672;13.622;2023-02-04T01:18:23;7.90;70.10
38325;DHT22;24126;52.672;13.622;2023-02-04T01:20:51;7.90;70.30
38325;DHT22;24126;52.672;13.622;2023-02-04T01:23:18;7.90;70.40
38325;DHT22;24126;52.672;13.622;2023-02-04T01:25:45;7.90;70.30
38325;DHT22;24126;52.672;13.622;2023-02-04T01:28:12;7.90;70.30
38325;DHT22;24126;52.672;13.622;2023-02-04T01:30:39;7.90;70.30
38325;DHT22;24126;52.672;13.622;2023-02-04T01:33:08;7.90;70.30
38325;DHT22;24126;52.672;13.622;2023-02-04T01:35:35;7.80;70.10
38325;DHT22;24126;52.672;13.622;2023-02-04T01:38:02;7.80;70.10
38325;DHT22;24126;52.672;13.622;2023-02-04T01:40:29;7.80;70.00
38325;DHT22;24126;52.672;13.622;2023-02-04T01:42:57;7.80;69.80
38325;DHT22;24126;52.672;13.622;2023-02-04T01:45:24;7.80;69.80
38325;DHT22;24126;52.672;13.622;2023-02-04T01:47:53;7.80;70.00
38325;DHT22;24126;52.672;13.622;2023-02-04T01:50:26;7.80;70.00
38325;DHT22;24126;52.672;13.622;2023-02-04T01:52:53;7.80;70.00
38325;DHT22;24126;52.672;13.622;2023-02-04T01:55:20;7.80;70.20
38325;DHT22;24126;52.672;13.622;2023-02-04T01:57:50;7.80;70.30
38325;DHT22;24126;52.672;13.622;2023-02-04T02:00:20;7.90;70.30
38325;DHT22;24126;52.672;13.622;2023-02-04T02:02:49;7.90;70.10
38325;DHT22;24126;52.672;13.622;2023-02-04T02:05:26;7.80;70.00
38325;DHT22;24126;52.672;13.622;2023-02-04T02:07:54;7.80;70.10
38325;DHT22;24126;52.672;13.622;2023-02-04T02:10:23;7.80;70.20
38325;DHT22;24126;52.672;13.622;2023-02-04T02:12:50;7.80;70.20
38325;DHT22;24126;52.672;13.622;2023-02-04T02:15:19;7.80;70.50
38325;DHT22;24126;52.672;13.622;2023-02-04T02:17:46;7.80;70.20
38325;DHT22;24126;52.672;13.622;2023-02-04T02:20:15;7.80;70.30
38325;DHT22;24126;52.672;13.622;2023-02-04T02:22:54;7.80;70.40
38325;DHT22;24126;52.672;13.622;2023-02-04T02:25:23;7.80;70.50
38325;DHT22;24126;52.672;13.622;2023-02-04T02:27:51;7.70;70.60
38325;DHT22;24126;52.672;13.622;2023-02-04T02:30:18;7.70;70.70
38325;DHT22;24126;52.672;13.622;2023-02-04T02:32:46;7.70;70.80
38325;DHT22;24126;52.672;13.622;2023-02-04T02:35:14;7.70;70.90
38325;DHT22;24126;52.672;13.622;2023-02-04T02:37:42;7.70;70.90
38325;DHT22;24126;52.672;13.622;2023-02-04T02:40:09;7.70;70.90
38325;DHT22;24126;52.672;13.622;2023-02-04T02:42:38;7.70;70.90
38325;DHT22;24126;52.672;13.622;2023-02-04T02:45:12;7.70;71.00
38325;DHT22;24126;52.672;13.622;2023-02-04T02:47:40;7.60;71.00
38325;DHT22;24126;52.672;13.622;2023-02-04T02:50:07;7.60;70.90
38325;DHT22;24126;52.672;13.622;2023-02-04T02:52:38;7.50;71.10
38325;DHT22;24126;52.672;13.622;2023-02-04T02:55:10;7.50;71.20
38325;DHT22;24126;52.672;13.622;2023-02-04T02:57:38;7.40;71.30
38325;DHT22;24126;52.672;13.622;2023-02-04T03:00:40;7.40;71.30
38325;DHT22;24126;52.672;13.622;2023-02-04T03:03:05;7.40;71.50
38325;DHT22;24126;52.672;13.622;2023-02-04T03:05:35;7.30;71.40
38325;DHT22;24126;52.672;13.622;2023-02-04T03:08:07;7.30;71.60
38325;DHT22;24126;52.672;13.622;2023-02-04T03:10:35;7.20;71.70
38325;DHT22;24126;52.672;13.622;2023-02-04T03:13:02;7.20;71.80
38325;DHT22;24126;52.672;13.622;2023-02-04T03:15:30;7.20;71.80
38325;DHT22;24126;52.672;13.622;2023-02-04T03:17:58;7.20;71.80
38325;DHT22;24126;52.672;13.622;2023-02-04T03:20:26;7.10;71.90
38325;DHT22;24126;52.672;13.622;2023-02-04T03:22:55;7.10;71.90
38325;DHT22;24126;52.672;13.622;2023-02-04T03:25:23;7.10;72.00
38325;DHT22;24126;52.672;13.622;2023-02-04T03:27:53;7.10;72.00
38325;DHT22;24126;52.672;13.622;2023-02-04T03:30:20;7.10;72.00
38325;DHT22;24126;52.672;13.622;2023-02-04T03:32:48;7.00;72.00
38325;DHT22;24126;52.672;13.622;2023-02-04T03:35:15;7.00;71.90
38325;DHT22;24126;52.672;13.622;2023-02-04T03:37:42;7.00;72.00
38325;DHT22;24126;52.672;13.622;2023-02-04T03:40:09;7.00;71.90
38325;DHT22;24126;52.672;13.622;2023-02-04T03:42:37;7.00;72.00
38325;DHT22;24126;52.672;13.622;2023-02-04T03:45:04;7.00;72.10
38325;DHT22;24126;52.672;13.622;2023-02-04T03:47:31;7.00;72.10
38325;DHT22;24126;52.672;13.622;2023-02-04T03:49:59;7.00;72.20
38325;DHT22;24126;52.672;13.622;2023-02-04T03:52:27;6.90;72.30
38325;DHT22;24126;52.672;13.622;2023-02-04T03:54:54;6.90;72.40
38325;DHT22;24126;52.672;13.622;2023-02-04T03:57:21;7.00;72.50
38325;DHT22;24126;52.672;13.622;2023-02-04T03:59:49;7.00;72.50
38325;DHT22;24126;52.672;13.622;2023-02-04T04:02:16;7.00;72.70
38325;DHT22;24126;52.672;13.622;2023-02-04T04:04:43;7.00;72.70
38325;DHT22;24126;52.672;13.622;2023-02-04T04:07:12;7.00;72.60
38325;DHT22;24126;52.672;13.622;2023-02-04T04:09:40;7.00;72.70
38325;DHT22;24126;52.672;13.622;2023-02-04T04:12:07;7.00;72.70
38325;DHT22;24126;52.672;13.622;2023-02-04T04:14:34;7.00;72.90
38325;DHT22;24126;52.672;13.622;2023-02-04T04:17:01;7.00;72.90
38325;DHT22;24126;52.672;13.622;2023-02-04T04:19:34;7.00;72.80
38325;DHT22;24126;52.672;13.622;2023-02-04T04:22:02;7.00;72.70
38325;DHT22;24126;52.672;13.622;2023-02-04T04:24:30;7.00;72.70
38325;DHT22;24126;52.672;13.622;2023-02-04T04:26:58;7.00;72.70
38325;DHT22;24126;52.672;13.622;2023-02-04T04:29:25;7.00;72.70
38325;DHT22;24126;52.672;13.622;2023-02-04T04:31:54;7.00;72.80
38325;DHT22;24126;52.672;13.622;2023-02-04T04:34:21;7.00;72.80
38325;DHT22;24126;52.672;13.622;2023-02-04T04:36:49;7.00;72.80
38325;DHT22;24126;52.672;13.622;2023-02-04T04:39:16;7.00;72.90
38325;DHT22;24126;52.672;13.622;2023-02-04T04:41:43;7.00;72.90
38325;DHT22;24126;52.672;13.622;2023-02-04T04:44:10;7.00;73.00
38325;DHT22;24126;52.672;13.622;2023-02-04T04:46:37;7.00;72.90
38325;DHT22;24126;52.672;13.622;2023-02-04T04:49:05;7.00;72.80
38325;DHT22;24126;52.672;13.622;2023-02-04T04:51:32;6.90;72.80
38325;DHT22;24126;52.672;13.622;2023-02-04T04:54:01;6.90;72.80
38325;DHT22;24126;52.672;13.622;2023-02-04T04:56:28;6.90;72.90
38325;DHT22;24126;52.672;13.622;2023-02-04T04:58:55;6.90;72.90
38325;DHT22;24126;52.672;13.622;2023-02-04T05:01:23;6.80;72.80
38325;DHT22;24126;52.672;13.622;2023-02-04T05:03:50;6.80;73.00
38325;DHT22;24126;52.672;13.622;2023-02-04T05:06:17;6.80;73.00
38325;DHT22;24126;52.672;13.622;2023-02-04T05:08:50;6.80;73.10
38325;DHT22;24126;52.672;13.622;2023-02-04T05:11:18;6.80;73.10
38325;DHT22;24126;52.672;13.622;2023-02-04T05:13:45;6.80;73.20
38325;DHT22;24126;52.672;13.622;2023-02-04T05:16:12;6.80;73.20
38325;DHT22;24126;52.672;13.622;2023-02-04T05:18:40;6.80;73.20
38325;DHT22;24126;52.672;13.622;2023-02-04T05:21:07;6.80;73.20
38325;DHT22;24126;52.672;13.622;2023-02-04T05:23:35;6.80;73.10
38325;DHT22;24126;52.672;13.622;2023-02-04T05:26:02;6.80;73.10
38325;DHT22;24126;52.672;13.622;2023-02-04T05:28:29;6.80;73.10
38325;DHT22;24126;52.672;13.622;2023-02-04T05:30:56;6.80;73.20
38325;DHT22;24126;52.672;13.622;2023-02-04T05:33:23;6.80;73.20
38325;DHT22;24126;52.672;13.622;2023-02-04T05:35:51;6.80;73.10
38325;DHT22;24126;52.672;13.622;2023-02-04T05:38:18;6.80;73.10
38325;DHT22;24126;52.672;13.622;2023-02-04T05:40:45;6.80;73.20
38325;DHT22;24126;52.672;13.622;2023-02-04T05:43:12;6.70;73.20
38325;DHT22;24126;52.672;13.622;2023-02-04T05:45:39;6.70;73.20
38325;DHT22;24126;52.672;13.622;2023-02-04T05:48:06;6.70;73.10
38325;DHT22;24126;52.672;13.622;2023-02-04T05:50:35;6.70;73.10
38325;DHT22;24126;52.672;13.622;2023-02-04T05:53:08;6.70;73.10
38325;DHT22;24126;52.672;13.622;2023-02-04T05:55:35;6.70;73.10
38325;DHT22;24126;52.672;13.622;2023-02-04T05:58:02;6.70;73.20
38325;DHT22;24126;52.672;13.622;2023-02-04T06:00:29;6.60;73.20
38325;DHT22;24126;52.672;13.622;2023-02-04T06:02:56;6.60;73.20
38325;DHT22;24126;52.672;13.622;2023-02-04T06:05:23;6.60;73.40
38325;DHT22;24126;52.672;13.622;2023-02-04T06:07:50;6.60;73.30
38325;DHT22;24126;52.672;13.622;2023-02-04T06:10:17;6.50;73.20
38325;DHT22;24126;52.672;13.622;2023-02-04T06:12:46;6.50;73.30
38325;DHT22;24126;52.672;13.622;2023-02-04T06:15:13;6.50;73.30
38325;DHT22;24126;52.672;13.622;2023-02-04T06:17:40;6.50;73.30
38325;DHT22;24126;52.672;13.622;2023-02-04T06:20:08;6.50;73.30
38325;DHT22;24126;52.672;13.622;2023-02-04T06:22:37;6.40;73.30
38325;DHT22;24126;52.672;13.622;2023-02-04T06:25:04;6.40;73.30
38325;DHT22;24126;52.672;13.622;2023-02-04T06:27:31;6.40;73.30
38325;DHT22;24126;52.672;13.622;2023-02-04T06:29:59;6.40;73.50
38325;DHT22;24126;52.672;13.622;2023-02-04T06:32:26;6.30;73.50
38325;DHT22;24126;52.672;13.622;2023-02-04T06:34:53;6.30;73.50
38325;DHT22;24126;52.672;13.622;2023-02-04T06:37:20;6.30;73.60
38325;DHT22;24126;52.672;13.622;2023-02-04T06:39:47;6.30;73.60
38325;DHT22;24126;52.672;13.622;2023-02-04T06:42:14;6.30;73.60
38325;DHT22;24126;52.672;13.622;2023-02-04T06:44:41;6.30;73.70
38325;DHT22;24126;52.672;13.622;2023-02-04T06:47:08;6.20;73.70
38325;DHT22;24126;52.672;13.622;2023-02-04T06:49:35;6.30;73.70
38325;DHT22;24126;52.672;13.622;2023-02-04T06:52:03;6.30;73.70
38325;DHT22;24126;52.672;13.622;2023-02-04T06:54:30;6.30;73.70
38325;DHT22;24126;52.672;13.622;2023-02-04T06:56:57;6.20;73.70
38325;DHT22;24126;52.672;13.622;2023-02-04T06:59:32;6.20;73.70
38325;DHT22;24126;52.672;13.622;2023-02-04T07:01:59;6.20;73.70
38325;DHT22;24126;52.672;13.622;2023-02-04T07:04:27;6.20;73.80
38325;DHT22;24126;52.672;13.622;2023-02-04T07:06:54;6.30;73.80
38325;DHT22;24126;52.672;13.622;2023-02-04T07:09:23;6.30;73.60
38325;DHT22;24126;52.672;13.622;2023-02-04T07:11:50;6.30;73.40
38325;DHT22;24126;52.672;13.622;2023-02-04T07:14:19;6.30;73.30
38325;DHT22;24126;52.672;13.622;2023-02-04T07:16:46;6.30;73.40
38325;DHT22;24126;52.672;13.622;2023-02-04T07:19:13;6.30;73.40
38325;DHT22;24126;52.672;13.622;2023-02-04T07:21:40;6.30;73.40
38325;DHT22;24126;52.672;13.622;2023-02-04T07:24:08;6.30;73.40
38325;DHT22;24126;52.672;13.622;2023-02-04T07:26:35;6.30;73.40
38325;DHT22;24126;52.672;13.622;2023-02-04T07:29:03;6.30;73.30
38325;DHT22;24126;52.672;13.622;2023-02-04T07:31:30;6.30;73.50
38325;DHT22;24126;52.672;13.622;2023-02-04T07:33:57;6.30;73.40
38325;DHT22;24126;52.672;13.622;2023-02-04T07:36:24;6.40;73.50
38325;DHT22;24126;52.672;13.622;2023-02-04T07:38:51;6.40;73.60
38325;DHT22;24126;52.672;13.622;2023-02-04T07:41:18;6.40;73.50
38325;DHT22;24126;52.672;13.622;2023-02-04T07:43:46;6.50;73.70
38325;DHT22;24126;52.672;13.622;2023-02-04T07:46:13;6.60;73.70
38325;DHT22;24126;52.672;13.622;2023-02-04T07:48:42;6.70;73.10
38325;DHT22;24126;52.672;13.622;2023-02-04T07:51:09;6.80;73.10
38325;DHT22;24126;52.672;13.622;2023-02-04T07:53:36;6.90;73.30
38325;DHT22;24126;52.672;13.622;2023-02-04T07:56:03;7.00;73.30
38325;DHT22;24126;52.672;13.622;2023-02-04T07:58:30;7.40;73.40
38325;DHT22;24126;52.672;13.622;2023-02-04T08:00:58;7.90;72.20
38325;DHT22;24126;52.672;13.622;2023-02-04T08:03:26;8.10;70.80
38325;DHT22;24126;52.672;13.622;2023-02-04T08:05:53;8.20;69.90
38325;DHT22;24126;52.672;13.622;2023-02-04T08:08:21;8.10;69.50
38325;DHT22;24126;52.672;13.622;2023-02-04T08:10:48;7.90;69.80
38325;DHT22;24126;52.672;13.622;2023-02-04T08:13:15;7.90;70.60
38325;DHT22;24126;52.672;13.622;2023-02-04T08:15:42;8.10;70.60
38325;DHT22;24126;52.672;13.622;2023-02-04T08:18:09;8.20;70.10
38325;DHT22;24126;52.672;13.622;2023-02-04T08:20:37;8.30;69.30
38325;DHT22;24126;52.672;13.622;2023-02-04T08:23:04;8.40;69.30
38325;DHT22;24126;52.672;13.622;2023-02-04T08:25:31;8.40;68.90
38325;DHT22;24126;52.672;13.622;2023-02-04T08:27:58;8.80;70.60
38325;DHT22;24126;52.672;13.622;2023-02-04T08:30:26;10.80;68.50
38325;DHT22;24126;52.672;13.622;2023-02-04T08:32:53;13.30;62.10
38325;DHT22;24126;52.672;13.622;2023-02-04T08:35:20;15.50;55.80
38325;DHT22;24126;52.672;13.622;2023-02-04T08:37:47;17.10;51.40
38325;DHT22;24126;52.672;13.622;2023-02-04T08:40:14;18.40;48.10
38325;DHT22;24126;52.672;13.622;2023-02-04T08:42:42;19.70;44.50
38325;DHT22;24126;52.672;13.622;2023-02-04T08:45:09;20.50;42.20
38325;DHT22;24126;52.672;13.622;2023-02-04T08:47:36;21.10;40.40
38325;DHT22;24126;52.672;13.622;2023-02-04T08:50:03;21.40;38.60
38325;DHT22;24126;52.672;13.622;2023-02-04T08:52:30;21.10;38.50
38325;DHT22;24126;52.672;13.622;2023-02-04T08:54:57;20.80;38.50
38325;DHT22;24126;52.672;13.622;2023-02-04T08:57:25;20.50;38.60
38325;DHT22;24126;52.672;13.622;2023-02-04T08:59:52;19.90;39.90
38325;DHT22;24126;52.672;13.622;2023-02-04T09:02:19;19.40;40.70
38325;DHT22;24126;52.672;13.622;2023-02-04T09:04:46;18.70;41.90
38325;DHT22;24126;52.672;13.622;2023-02-04T09:07:19;18.00;42.80
38325;DHT22;24126;52.672;13.622;2023-02-04T09:09:55;17.30;43.60
38325;DHT22;24126;52.672;13.622;2023-02-04T09:12:22;16.60;45.20
38325;DHT22;24126;52.672;13.622;2023-02-04T09:14:52;15.90;46.50
38325;DHT22;24126;52.672;13.622;2023-02-04T09:17:20;15.40;48.00
38325;DHT22;24126;52.672;13.622;2023-02-04T09:19:48;15.00;50.30
38325;DHT22;24126;52.672;13.622;2023-02-04T09:22:16;14.70;50.10
38325;DHT22;24126;52.672;13.622;2023-02-04T09:24:43;14.40;50.30
38325;DHT22;24126;52.672;13.622;2023-02-04T09:27:10;14.20;50.70
38325;DHT22;24126;52.672;13.622;2023-02-04T09:29:37;14.00;51.30
38325;DHT22;24126;52.672;13.622;2023-02-04T09:32:05;13.80;51.90
38325;DHT22;24126;52.672;13.622;2023-02-04T09:34:32;13.70;52.00
38325;DHT22;24126;52.672;13.622;2023-02-04T09:36:59;13.60;52.00
38325;DHT22;24126;52.672;13.622;2023-02-04T09:39:27;13.50;51.70
38325;DHT22;24126;52.672;13.622;2023-02-04T09:41:54;13.40;51.90
38325;DHT22;24126;52.672;13.622;2023-02-04T09:44:23;13.30;52.00
38325;DHT22;24126;52.672;13.622;2023-02-04T09:46:51;13.30;52.80
38325;DHT22;24126;52.672;13.622;2023-02-04T09:49:19;13.40;52.60
38325;DHT22;24126;52.672;13.622;2023-02-04T09:51:46;13.40;52.20
38325;DHT22;24126;52.672;13.622;2023-02-04T09:54:15;13.40;51.40
38325;DHT22;24126;52.672;13.622;2023-02-04T09:56:43;13.20;51.60
38325;DHT22;24126;52.672;13.622;2023-02-04T09:59:14;12.90;52.20
38325;DHT22;24126;52.672;13.622;2023-02-04T10:01:42;12.80;52.90
38325;DHT22;24126;52.672;13.622;2023-02-04T10:04:11;12.60;53.00
38325;DHT22;24126;52.672;13.622;2023-02-04T10:06:39;12.40;53.10
38325;DHT22;24126;52.672;13.622;2023-02-04T10:09:08;12.20;52.70
38325;DHT22;24126;52.672;13.622;2023-02-04T10:11:36;11.80;53.60
38325;DHT22;24126;52.672;13.622;2023-02-04T10:14:03;11.60;54.40
38325;DHT22;24126;52.672;13.622;2023-02-04T10:16:31;11.50;55.10
38325;DHT22;24126;52.672;13.622;2023-02-04T10:19:00;11.50;55.40
38325;DHT22;24126;52.672;13.622;2023-02-04T10:21:28;11.50;55.40
38325;DHT22;24126;52.672;13.622;2023-02-04T10:23:57;11.40;55.40
38325;DHT22;24126;52.672;13.622;2023-02-04T10:26:25;11.30;55.20
38325;DHT22;24126;52.672;13.622;2023-02-04T10:29:00;11.20;55.50
38325;DHT22;24126;52.672;13.622;2023-02-04T10:31:37;11.10;55.20
38325;DHT22;24126;52.672;13.622;2023-02-04T10:34:31;11.00;55.20
38325;DHT22;24126;52.672;13.622;2023-02-04T10:36:53;10.80;55.50
38325;DHT22;24126;52.672;13.622;2023-02-04T10:39:23;10.70;56.20
38325;DHT22;24126;52.672;13.622;2023-02-04T10:41:54;10.80;56.70
38325;DHT22;24126;52.672;13.622;2023-02-04T10:44:26;10.90;56.30
38325;DHT22;24126;52.672;13.622;2023-02-04T10:47:00;11.00;55.80
38325;DHT22;24126;52.672;13.622;2023-02-04T10:49:27;11.00;55.90
38325;DHT22;24126;52.672;13.622;2023-02-04T10:51:54;10.90;55.50
38325;DHT22;24126;52.672;13.622;2023-02-04T10:54:23;10.70;55.80
38325;DHT22;24126;52.672;13.622;2023-02-04T10:57:03;10.60;55.80
38325;DHT22;24126;52.672;13.622;2023-02-04T10:59:33;10.50;56.10
38325;DHT22;24126;52.672;13.622;2023-02-04T11:02:01;10.40;56.20
38325;DHT22;24126;52.672;13.622;2023-02-04T11:04:28;10.40;56.70
38325;DHT22;24126;52.672;13.622;2023-02-04T11:06:57;10.50;57.40
38325;DHT22;24126;52.672;13.622;2023-02-04T11:09:24;10.70;57.30
38325;DHT22;24126;52.672;13.622;2023-02-04T11:11:52;10.80;56.20
38325;DHT22;24126;52.672;13.622;2023-02-04T11:14:24;10.80;55.90
38325;DHT22;24126;52.672;13.622;2023-02-04T11:16:51;10.70;55.90
38325;DHT22;24126;52.672;13.622;2023-02-04T11:19:30;10.60;56.30
38325;DHT22;24126;52.672;13.622;2023-02-04T11:22:17;10.40;56.60
38325;DHT22;24126;52.672;13.622;2023-02-04T11:24:45;10.30;57.00
38325;DHT22;24126;52.672;13.622;2023-02-04T11:27:23;10.20;57.10
38325;DHT22;24126;52.672;13.622;2023-02-04T11:29:51;10.10;57.50
38325;DHT22;24126;52.672;13.622;2023-02-04T11:34:52;10.10;57.80
38325;DHT22;24126;52.672;13.622;2023-02-04T11:42:49;10.40;56.60
38325;DHT22;24126;52.672;13.622;2023-02-04T11:45:29;10.40;56.30
38325;DHT22;24126;52.672;13.622;2023-02-04T11:47:58;10.40;56.00
38325;DHT22;24126;52.672;13.622;2023-02-04T11:50:27;10.50;55.60
38325;DHT22;24126;52.672;13.622;2023-02-04T11:52:56;10.70;54.80
38325;DHT22;24126;52.672;13.622;2023-02-04T11:55:24;10.80;54.10
38325;DHT22;24126;52.672;13.622;2023-02-04T11:57:52;11.00;54.10
38325;DHT22;24126;52.672;13.622;2023-02-04T12:00:25;11.00;53.80
38325;DHT22;24126;52.672;13.622;2023-02-04T12:03:02;11.10;53.30
38325;DHT22;24126;52.672;13.622;2023-02-04T12:05:34;11.00;53.30
38325;DHT22;24126;52.672;13.622;2023-02-04T12:08:08;10.80;53.30
38325;DHT22;24126;52.672;13.622;2023-02-04T12:10:36;10.70;53.50
38325;DHT22;24126;52.672;13.622;2023-02-04T12:13:11;10.50;53.40
38325;DHT22;24126;52.672;13.622;2023-02-04T12:15:38;10.40;53.90
38325;DHT22;24126;52.672;13.622;2023-02-04T12:18:06;10.40;53.80
38325;DHT22;24126;52.672;13.622;2023-02-04T12:20:34;10.30;53.20
38325;DHT22;24126;52.672;13.622;2023-02-04T12:23:02;10.20;53.70
38325;DHT22;24126;52.672;13.622;2023-02-04T12:25:29;10.10;53.70
38325;DHT22;24126;52.672;13.622;2023-02-04T12:27:56;10.10;53.90
38325;DHT22;24126;52.672;13.622;2023-02-04T12:30:24;10.00;53.90
38325;DHT22;24126;52.672;13.622;2023-02-04T12:32:51;9.90;54.40
38325;DHT22;24126;52.672;13.622;2023-02-04T12:35:18;10.00;54.70
38325;DHT22;24126;52.672;13.622;2023-02-04T12:37:45;10.00;54.90
38325;DHT22;24126;52.672;13.622;2023-02-04T12:40:14;10.00;55.00
38325;DHT22;24126;52.672;13.622;2023-02-04T12:42:42;10.10;54.90
38325;DHT22;24126;52.672;13.622;2023-02-04T12:45:13;10.10;55.40
38325;DHT22;24126;52.672;13.622;2023-02-04T12:47:40;10.20;55.20
38325;DHT22;24126;52.672;13.622;2023-02-04T12:50:08;10.30;54.90
38325;DHT22;24126;52.672;13.622;2023-02-04T12:52:35;10.20;54.50
38325;DHT22;24126;52.672;13.622;2023-02-04T12:55:04;10.20;54.20
38325;DHT22;24126;52.672;13.622;2023-02-04T12:57:32;10.20;54.70
38325;DHT22;24126;52.672;13.622;2023-02-04T12:59:59;10.00;54.70
38325;DHT22;24126;52.672;13.622;2023-02-04T13:02:27;10.00;55.40
38325;DHT22;24126;52.672;13.622;2023-02-04T13:04:54;9.90;54.80
38325;DHT22;24126;52.672;13.622;2023-02-04T13:07:21;9.90;54.70
38325;DHT22;24126;52.672;13.622;2023-02-04T13:09:48;9.80;54.70
38325;DHT22;24126;52.672;13.622;2023-02-04T13:12:15;9.80;54.60
38325;DHT22;24126;52.672;13.622;2023-02-04T13:14:43;9.70;54.40
38325;DHT22;24126;52.672;13.622;2023-02-04T13:17:10;9.70;54.60
38325;DHT22;24126;52.672;13.622;2023-02-04T13:19:37;9.70;54.60
38325;DHT22;24126;52.672;13.622;2023-02-04T13:22:04;9.60;54.60
38325;DHT22;24126;52.672;13.622;2023-02-04T13:24:31;9.50;55.00
38325;DHT22;24126;52.672;13.622;2023-02-04T13:26:58;9.50;54.80
38325;DHT22;24126;52.672;13.622;2023-02-04T13:29:25;9.40;54.40
38325;DHT22;24126;52.672;13.622;2023-02-04T13:31:52;9.40;54.40
38325;DHT22;24126;52.672;13.622;2023-02-04T13:34:19;9.40;53.90
38325;DHT22;24126;52.672;13.622;2023-02-04T13:36:46;9.50;54.40
38325;DHT22;24126;52.672;13.622;2023-02-04T13:39:13;9.60;54.40
38325;DHT22;24126;52.672;13.622;2023-02-04T13:41:40;9.70;54.30
38325;DHT22;24126;52.672;13.622;2023-02-04T13:44:08;9.80;53.80
38325;DHT22;24126;52.672;13.622;2023-02-04T13:46:35;9.80;53.50
38325;DHT22;24126;52.672;13.622;2023-02-04T13:49:02;9.70;53.70
38325;DHT22;24126;52.672;13.622;2023-02-04T13:51:29;9.60;52.80
38325;DHT22;24126;52.672;13.622;2023-02-04T13:53:56;9.60;52.60
38325;DHT22;24126;52.672;13.622;2023-02-04T13:56:25;9.50;52.90
38325;DHT22;24126;52.672;13.622;2023-02-04T13:58:53;9.50;53.30
38325;DHT22;24126;52.672;13.622;2023-02-04T14:01:20;9.40;52.70
38325;DHT22;24126;52.672;13.622;2023-02-04T14:03:47;9.40;52.90
38325;DHT22;24126;52.672;13.622;2023-02-04T14:06:14;9.30;53.10
38325;DHT22;24126;52.672;13.622;2023-02-04T14:08:45;9.30;53.60
38325;DHT22;24126;52.672;13.622;2023-02-04T14:11:12;9.30;53.20
38325;DHT22;24126;52.672;13.622;2023-02-04T14:13:39;9.30;52.90
38325;DHT22;24126;52.672;13.622;2023-02-04T14:16:06;9.40;53.90
38325;DHT22;24126;52.672;13.622;2023-02-04T14:18:34;9.30;53.60
38325;DHT22;24126;52.672;13.622;2023-02-04T14:21:01;9.30;54.00
38325;DHT22;24126;52.672;13.622;2023-02-04T14:23:28;9.30;53.90
38325;DHT22;24126;52.672;13.622;2023-02-04T14:25:55;9.20;54.00
38325;DHT22;24126;52.672;13.622;2023-02-04T14:28:22;9.20;54.20
38325;DHT22;24126;52.672;13.622;2023-02-04T14:30:49;9.10;53.90
38325;DHT22;24126;52.672;13.622;2023-02-04T14:33:16;9.10;54.10
38325;DHT22;24126;52.672;13.622;2023-02-04T14:35:44;9.00;53.30
38325;DHT22;24126;52.672;13.622;2023-02-04T14:38:11;9.00;53.40
38325;DHT22;24126;52.672;13.622;2023-02-04T14:40:41;8.90;52.90
38325;DHT22;24126;52.672;13.622;2023-02-04T14:43:08;8.80;52.80
38325;DHT22;24126;52.672;13.622;2023-02-04T14:45:36;8.80;53.10
38325;DHT22;24126;52.672;13.622;2023-02-04T14:48:04;8.70;52.90
38325;DHT22;24126;52.672;13.622;2023-02-04T14:50:31;8.70;52.90
38325;DHT22;24126;52.672;13.622;2023-02-04T14:52:59;8.60;52.70
38325;DHT22;24126;52.672;13.622;2023-02-04T14:55:26;8.70;53.20
38325;DHT22;24126;52.672;13.622;2023-02-04T14:57:54;8.70;53.00
38325;DHT22;24126;52.672;13.622;2023-02-04T15:00:21;8.70;52.90
38325;DHT22;24126;52.672;13.622;2023-02-04T15:02:48;8.70;53.10
38325;DHT22;24126;52.672;13.622;2023-02-04T15:05:18;8.80;52.80
38325;DHT22;24126;52.672;13.622;2023-02-04T15:07:45;8.80;53.20
38325;DHT22;24126;52.672;13.622;2023-02-04T15:10:12;8.80;53.00
38325;DHT22;24126;52.672;13.622;2023-02-04T15:12:39;8.70;53.00
38325;DHT22;24126;52.672;13.622;2023-02-04T15:15:07;8.60;52.50
38325;DHT22;24126;52.672;13.622;2023-02-04T15:17:34;8.60;53.80
38325;DHT22;24126;52.672;13.622;2023-02-04T15:20:01;8.50;52.60
38325;DHT22;24126;52.672;13.622;2023-02-04T15:22:29;8.50;52.30
38325;DHT22;24126;52.672;13.622;2023-02-04T15:25:00;8.40;52.50
38325;DHT22;24126;52.672;13.622;2023-02-04T15:27:28;8.40;52.60
38325;DHT22;24126;52.672;13.622;2023-02-04T15:29:59;8.30;52.60
38325;DHT22;24126;52.672;13.622;2023-02-04T15:35:00;8.20;52.90
38325;DHT22;24126;52.672;13.622;2023-02-04T15:37:28;8.20;53.10
38325;DHT22;24126;52.672;13.622;2023-02-04T15:39:56;8.10;53.10
38325;DHT22;24126;52.672;13.622;2023-02-04T15:42:23;8.10;53.10
38325;DHT22;24126;52.672;13.622;2023-02-04T15:44:52;8.10;54.00
38325;DHT22;24126;52.672;13.622;2023-02-04T15:47:19;8.00;53.80